createdAt,value
2018-12-03T00:01:59.122Z,21.43
2018-12-03T00:04:28.431Z,21.87
2018-12-03T00:06:57.868Z,21.07
2018-12-03T00:09:27.479Z,20.47
2018-12-03T00:11:57.022Z,19.90
2018-12-03T00:14:26.602Z,19.90
2018-12-03T00:16:56.201Z,19.93
2018-12-03T00:19:25.774Z,19.57
2018-12-03T00:21:55.362Z,18.90
2018-12-03T00:24:24.944Z,19.63
2018-12-03T00:26:54.509Z,18.10
2018-12-03T00:29:24.095Z,19.67
2018-12-03T00:31:53.887Z,17.63
2018-12-03T00:34:23.407Z,17.37
2018-12-03T00:36:53.258Z,17.60
2018-12-03T00:39:22.478Z,17.50
2018-12-03T00:41:51.573Z,18.70
2018-12-03T00:44:21.108Z,17.77
2018-12-03T00:46:50.686Z,15.53
2018-12-03T00:49:20.234Z,16.40
2018-12-03T00:51:49.802Z,16.13
2018-12-03T00:54:19.370Z,15.10
2018-12-03T00:56:48.912Z,15.30
2018-12-03T00:59:18.450Z,14.07
2018-12-03T01:01:48.038Z,15.37
2018-12-03T01:04:17.591Z,13.00
2018-12-03T01:06:47.203Z,13.27
2018-12-03T01:09:16.783Z,13.23
2018-12-03T01:11:46.343Z,13.03
2018-12-03T01:14:15.875Z,13.10
2018-12-03T01:16:45.444Z,13.33
2018-12-03T01:19:15.011Z,14.83
2018-12-03T01:21:44.598Z,14.43
2018-12-03T01:24:14.147Z,15.03
2018-12-03T01:26:43.758Z,15.13
2018-12-03T01:29:13.306Z,14.17
2018-12-03T01:31:42.867Z,14.40
2018-12-03T01:34:12.454Z,14.07
2018-12-03T01:36:41.983Z,15.03
2018-12-03T01:39:11.537Z,15.47
2018-12-03T01:41:41.123Z,16.10
2018-12-03T01:44:10.671Z,14.93
2018-12-03T01:46:40.230Z,15.63
2018-12-03T01:49:09.811Z,16.00
2018-12-03T01:51:38.974Z,16.43
2018-12-03T01:54:08.427Z,17.30
2018-12-03T01:56:38.008Z,16.27
2018-12-03T01:59:07.553Z,16.60
2018-12-03T02:01:37.132Z,17.33
2018-12-03T02:04:06.693Z,18.33
2018-12-03T02:06:36.243Z,16.70
2018-12-03T02:09:09.103Z,17.40
2018-12-03T02:11:38.635Z,16.70
2018-12-03T02:14:08.196Z,17.10
2018-12-03T02:16:37.731Z,16.77
2018-12-03T02:19:07.343Z,16.23
2018-12-03T02:21:36.890Z,17.07
2018-12-03T02:24:06.691Z,16.20
2018-12-03T02:26:36.286Z,16.90
2018-12-03T02:29:05.878Z,16.77
2018-12-03T02:31:35.432Z,17.37
2018-12-03T02:34:05.372Z,16.97
2018-12-03T02:36:34.911Z,17.70
2018-12-03T02:39:06.173Z,16.87
2018-12-03T02:41:35.483Z,17.17
2018-12-03T02:44:05.075Z,16.90
2018-12-03T02:46:34.625Z,16.10
2018-12-03T02:49:03.798Z,17.33
2018-12-03T02:51:33.260Z,18.20
2018-12-03T02:54:02.832Z,16.43
2018-12-03T02:56:32.402Z,16.97
2018-12-03T02:59:01.957Z,16.80
2018-12-03T03:01:31.680Z,16.93
2018-12-03T03:04:01.272Z,16.20
2018-12-03T03:06:30.852Z,16.07
2018-12-03T03:09:00.031Z,16.17
2018-12-03T03:11:29.487Z,14.83
2018-12-03T03:13:59.046Z,15.30
2018-12-03T03:16:43.347Z,15.80
2018-12-03T03:19:12.883Z,14.03
2018-12-03T03:21:42.447Z,15.40
2018-12-03T03:24:12.043Z,14.67
2018-12-03T03:26:41.589Z,15.17
2018-12-03T03:29:10.882Z,15.53
2018-12-03T03:31:40.478Z,15.87
2018-12-03T03:34:10.058Z,16.53
2018-12-03T03:36:39.599Z,15.87
2018-12-03T03:39:09.471Z,16.43
2018-12-03T03:41:39.021Z,15.57
2018-12-03T03:44:08.570Z,15.77
2018-12-03T03:46:38.107Z,15.73
2018-12-03T03:49:07.636Z,16.37
2018-12-03T03:51:37.185Z,15.60
2018-12-03T03:54:06.847Z,14.27
2018-12-03T03:56:36.453Z,14.90
2018-12-03T03:59:06.188Z,14.43
2018-12-03T04:01:35.739Z,16.67
2018-12-03T04:04:06.046Z,18.87
2018-12-03T04:06:35.595Z,16.10
2018-12-03T04:09:07.098Z,16.90
2018-12-03T04:11:36.639Z,14.63
2018-12-03T04:14:06.215Z,14.63
2018-12-03T04:16:35.826Z,14.90
2018-12-03T04:19:05.604Z,15.73
2018-12-03T04:21:35.199Z,16.83
2018-12-03T04:24:04.842Z,12.47
2018-12-03T04:26:34.138Z,11.80
2018-12-03T04:29:03.365Z,13.60
2018-12-03T04:31:32.824Z,12.77
2018-12-03T04:34:02.404Z,12.03
2018-12-03T04:36:31.932Z,12.53
2018-12-03T04:39:01.475Z,11.50
2018-12-03T04:41:30.766Z,13.60
2018-12-03T04:44:00.354Z,15.67
2018-12-03T04:46:29.939Z,16.97
2018-12-03T04:49:00.564Z,15.70
2018-12-03T04:51:29.079Z,14.83
2018-12-03T04:53:58.691Z,14.03
2018-12-03T04:56:27.866Z,12.07
2018-12-03T04:58:57.323Z,14.30
2018-12-03T05:01:26.936Z,12.93
2018-12-03T05:03:56.474Z,12.00
2018-12-03T05:06:26.023Z,11.60
2018-12-03T05:08:55.578Z,11.87
2018-12-03T05:11:25.148Z,13.20
2018-12-03T05:13:54.695Z,12.83
2018-12-03T05:16:24.262Z,13.30
2018-12-03T05:18:53.791Z,12.40
2018-12-03T05:21:23.347Z,11.83
2018-12-03T05:23:52.542Z,12.37
2018-12-03T05:26:21.990Z,12.77
2018-12-03T05:28:51.542Z,12.63
2018-12-03T05:31:21.098Z,13.60
2018-12-03T05:33:50.691Z,12.13
2018-12-03T05:36:20.240Z,11.67
2018-12-03T05:38:49.817Z,12.93
2018-12-03T05:41:19.380Z,11.27
2018-12-03T05:43:48.923Z,12.13
2018-12-03T05:46:18.502Z,11.87
2018-12-03T05:48:48.031Z,11.00
2018-12-03T05:51:17.631Z,10.53
2018-12-03T05:53:47.162Z,11.10
2018-12-03T05:56:16.690Z,10.43
2018-12-03T05:58:46.353Z,12.10
2018-12-03T06:01:15.896Z,12.67
2018-12-03T06:03:45.438Z,13.03
2018-12-03T06:06:15.019Z,11.43
2018-12-03T06:08:44.563Z,12.53
2018-12-03T06:11:14.114Z,11.83
2018-12-03T06:13:43.691Z,13.37
2018-12-03T06:16:13.259Z,13.53
2018-12-03T06:18:42.955Z,12.83
2018-12-03T06:21:12.540Z,12.87
2018-12-03T06:23:42.091Z,14.00
2018-12-03T06:26:11.638Z,15.43
2018-12-03T06:28:41.184Z,12.53
2018-12-03T06:31:10.737Z,15.03
2018-12-03T06:33:40.270Z,13.00
2018-12-03T06:36:09.612Z,15.33
2018-12-03T06:38:39.162Z,12.80
2018-12-03T06:41:08.714Z,10.77
2018-12-03T06:43:38.257Z,10.93
2018-12-03T06:46:07.798Z,11.67
2018-12-03T06:48:37.340Z,11.37
2018-12-03T06:51:06.894Z,24.63
2018-12-03T06:53:36.459Z,17.13
2018-12-03T06:56:06.051Z,14.03
2018-12-03T06:58:35.595Z,15.40
2018-12-03T07:01:05.703Z,16.03
2018-12-03T07:03:35.244Z,15.70
2018-12-03T07:06:05.247Z,15.43
2018-12-03T07:08:34.781Z,26.07
2018-12-03T07:11:03.990Z,29.50
2018-12-03T07:13:33.438Z,22.03
2018-12-03T07:16:03.011Z,18.83
2018-12-03T07:18:32.624Z,15.20
2018-12-03T07:21:02.220Z,15.03
2018-12-03T07:23:31.423Z,13.23
2018-12-03T07:26:00.867Z,12.30
2018-12-03T07:28:30.477Z,12.57
2018-12-03T07:31:00.023Z,14.30
2018-12-03T07:33:29.567Z,10.90
2018-12-03T07:35:59.115Z,10.03
2018-12-03T07:38:28.662Z,10.37
2018-12-03T07:40:58.196Z,10.53
2018-12-03T07:43:27.738Z,9.73
2018-12-03T07:45:57.295Z,9.77
2018-12-03T07:48:26.827Z,9.07
2018-12-03T07:50:56.359Z,9.20
2018-12-03T07:53:25.923Z,8.43
2018-12-03T07:55:55.460Z,9.10
2018-12-03T07:58:24.982Z,9.73
2018-12-03T08:00:55.894Z,11.17
2018-12-03T08:03:25.508Z,10.13
2018-12-03T08:05:55.061Z,11.40
2018-12-03T08:08:24.607Z,11.63
2018-12-03T08:10:56.059Z,11.80
2018-12-03T08:13:25.611Z,12.63
2018-12-03T08:15:55.182Z,14.47
2018-12-03T08:18:25.603Z,14.00
2018-12-03T08:21:01.051Z,16.90
2018-12-03T08:24:06.602Z,14.87
2018-12-03T08:27:14.634Z,15.27
2018-12-03T08:29:44.163Z,17.50
2018-12-03T08:32:13.679Z,12.63
2018-12-03T08:34:43.201Z,10.30
2018-12-03T08:37:12.767Z,10.47
2018-12-03T08:39:42.278Z,10.43
2018-12-03T08:42:11.818Z,10.73
2018-12-03T08:44:41.390Z,10.53
2018-12-03T08:47:12.818Z,10.13
2018-12-03T08:49:42.343Z,9.30
2018-12-03T08:52:13.908Z,8.47
2018-12-03T08:54:43.431Z,9.67
2018-12-03T08:57:13.359Z,10.00
2018-12-03T08:59:42.883Z,9.47
2018-12-03T09:02:12.402Z,10.33
2018-12-03T09:04:41.925Z,14.93
2018-12-03T09:07:11.448Z,10.17
2018-12-03T09:09:40.974Z,10.13
2018-12-03T09:12:10.503Z,9.70
2018-12-03T09:14:40.057Z,10.43
2018-12-03T09:17:12.826Z,10.90
2018-12-03T09:19:48.917Z,12.53
2018-12-03T09:22:18.429Z,12.73
2018-12-03T09:24:47.928Z,16.53
2018-12-03T09:27:17.495Z,14.90
2018-12-03T09:29:47.011Z,13.60
2018-12-03T09:32:16.531Z,14.90
2018-12-03T09:34:46.095Z,14.37
2018-12-03T09:37:15.609Z,12.27
2018-12-03T09:39:48.518Z,14.33
2018-12-03T09:42:18.048Z,15.10
2018-12-03T09:44:47.591Z,15.73
2018-12-03T09:47:17.096Z,18.27
2018-12-03T09:49:46.615Z,15.73
2018-12-03T09:52:16.179Z,17.63
2018-12-03T09:54:45.699Z,15.53
2018-12-03T09:57:15.239Z,14.07
2018-12-03T09:59:44.795Z,14.30
2018-12-03T10:02:14.319Z,13.93
2018-12-03T10:04:45.961Z,15.27
2018-12-03T10:07:19.717Z,12.93
2018-12-03T10:09:49.279Z,11.33
2018-12-03T10:12:18.790Z,11.47
2018-12-03T10:14:48.324Z,11.70
2018-12-03T10:17:17.935Z,13.67
2018-12-03T10:19:50.015Z,12.17
2018-12-03T10:22:19.626Z,13.03
2018-12-03T10:24:49.139Z,11.67
2018-12-03T10:27:18.650Z,9.20
2018-12-03T10:29:48.215Z,11.13
2018-12-03T10:32:19.907Z,10.00
2018-12-03T10:34:49.451Z,9.70
2018-12-03T10:37:20.864Z,18.40
2018-12-03T10:39:50.675Z,10.80
2018-12-03T10:42:20.227Z,12.73
2018-12-03T10:44:50.039Z,11.27
2018-12-03T10:47:19.565Z,13.23
2018-12-03T10:49:49.119Z,11.63
2018-12-03T10:52:20.259Z,17.23
2018-12-03T10:54:49.811Z,15.50
2018-12-03T10:57:19.591Z,13.13
2018-12-03T10:59:50.835Z,11.97
2018-12-03T11:02:31.667Z,12.67
2018-12-03T11:05:06.506Z,12.03
2018-12-03T11:07:36.515Z,10.87
2018-12-03T11:10:07.587Z,11.17
2018-12-03T11:12:36.794Z,14.37
2018-12-03T11:15:15.045Z,10.57
2018-12-03T11:17:44.641Z,11.63
2018-12-03T11:20:14.649Z,11.53
2018-12-03T11:22:45.402Z,10.00
2018-12-03T11:25:16.989Z,11.37
2018-12-03T11:27:49.444Z,11.43
2018-12-03T11:30:19.445Z,10.03
2018-12-03T11:32:49.010Z,18.93
2018-12-03T11:35:26.100Z,19.37
2018-12-03T11:38:02.731Z,13.30
2018-12-03T11:40:49.326Z,10.20
2018-12-03T11:43:18.867Z,11.40
2018-12-03T11:45:48.802Z,10.27
2018-12-03T11:48:18.331Z,13.67
2018-12-03T11:50:47.865Z,12.73
2018-12-03T11:53:18.412Z,20.50
2018-12-03T11:55:48.219Z,12.93
2018-12-03T11:58:17.752Z,15.50
2018-12-03T12:00:47.777Z,10.43
2018-12-03T12:03:17.303Z,12.17
2018-12-03T12:05:46.839Z,12.27
2018-12-03T12:08:16.359Z,13.90
2018-12-03T12:10:46.007Z,10.73
2018-12-03T12:13:17.275Z,11.37
2018-12-03T12:15:46.813Z,15.23
2018-12-03T12:18:16.315Z,11.07
2018-12-03T12:20:45.871Z,10.97
2018-12-03T12:23:15.391Z,18.27
2018-12-03T12:25:44.902Z,13.43
2018-12-03T12:28:14.469Z,15.20
2018-12-03T12:30:43.975Z,16.47
2018-12-03T12:33:13.499Z,22.90
2018-12-03T12:35:43.019Z,13.37
2018-12-03T12:38:12.543Z,10.60
2018-12-03T12:40:42.062Z,11.27
2018-12-03T12:43:11.599Z,17.63
2018-12-03T12:45:50.417Z,13.57
2018-12-03T12:48:21.051Z,10.63
2018-12-03T12:50:50.618Z,12.40
2018-12-03T12:53:20.158Z,13.13
2018-12-03T12:55:49.670Z,13.57
2018-12-03T12:58:19.235Z,15.73
2018-12-03T13:00:48.771Z,15.70
2018-12-03T13:03:18.286Z,12.10
2018-12-03T13:05:47.803Z,13.30
2018-12-03T13:08:18.451Z,10.57
2018-12-03T13:10:47.963Z,13.70
2018-12-03T13:13:17.499Z,14.57
2018-12-03T13:15:47.041Z,15.37
2018-12-03T13:18:16.564Z,12.63
2018-12-03T13:20:46.201Z,12.13
2018-12-03T13:23:15.715Z,12.67
2018-12-03T13:25:45.247Z,12.63
2018-12-03T13:28:14.775Z,16.50
2018-12-03T13:30:44.359Z,15.23
2018-12-03T13:33:14.243Z,15.50
2018-12-03T13:35:43.767Z,14.07
2018-12-03T13:38:13.322Z,12.90
2018-12-03T13:40:42.842Z,12.97
2018-12-03T13:43:12.391Z,12.07
2018-12-03T13:45:42.019Z,12.30
2018-12-03T13:48:11.551Z,12.00
2018-12-03T13:50:40.706Z,12.00
2018-12-03T13:53:10.671Z,13.13
2018-12-03T13:55:40.677Z,13.33
2018-12-03T13:58:10.204Z,13.10
2018-12-03T14:00:40.271Z,12.17
2018-12-03T14:03:11.394Z,11.37
2018-12-03T14:05:51.697Z,23.27
2018-12-03T14:08:29.571Z,21.47
2018-12-03T14:11:11.409Z,14.03
2018-12-03T14:13:52.095Z,20.30
2018-12-03T14:17:04.480Z,18.27
2018-12-03T14:19:34.979Z,18.03
2018-12-03T14:22:09.190Z,16.63
2018-12-03T14:24:38.819Z,17.53
2018-12-03T14:27:08.389Z,18.37
2018-12-03T14:29:37.928Z,15.70
2018-12-03T14:32:08.051Z,16.03
2018-12-03T14:34:37.579Z,20.20
2018-12-03T14:37:07.663Z,16.00
2018-12-03T14:39:37.215Z,17.90
2018-12-03T14:42:07.359Z,23.80
2018-12-03T14:44:36.546Z,24.40
2018-12-03T14:47:06.027Z,16.40
2018-12-03T14:49:35.553Z,15.77
2018-12-03T14:52:06.241Z,20.40
2018-12-03T14:54:35.802Z,19.63
2018-12-03T14:57:05.335Z,13.60
2018-12-03T14:59:34.891Z,13.50
2018-12-03T15:02:04.946Z,13.80
2018-12-03T15:04:34.503Z,14.17
2018-12-03T15:07:04.085Z,14.50
2018-12-03T15:09:33.611Z,17.27
2018-12-03T15:12:03.160Z,15.20
2018-12-03T15:14:32.684Z,11.53
2018-12-03T15:17:02.668Z,12.83
2018-12-03T15:19:32.222Z,11.67
2018-12-03T15:22:01.915Z,12.93
2018-12-03T15:24:31.453Z,13.20
2018-12-03T15:27:01.007Z,11.70
2018-12-03T15:29:30.531Z,15.20
2018-12-03T15:32:00.054Z,13.93
2018-12-03T15:34:29.579Z,13.57
2018-12-03T15:36:59.210Z,14.53
2018-12-03T15:39:28.362Z,14.20
2018-12-03T15:41:57.829Z,12.47
2018-12-03T15:44:27.392Z,13.80
2018-12-03T15:46:56.947Z,16.57
2018-12-03T15:49:28.239Z,14.97
2018-12-03T15:51:57.800Z,13.93
2018-12-03T15:54:27.375Z,13.73
2018-12-03T15:56:57.275Z,13.10
2018-12-03T15:59:27.031Z,13.43
2018-12-03T16:01:57.217Z,13.33
2018-12-03T16:04:26.823Z,13.63
2018-12-03T16:06:56.444Z,14.40
2018-12-03T16:09:26.019Z,16.50
2018-12-03T16:11:55.649Z,18.33
2018-12-03T16:14:25.179Z,12.97
2018-12-03T16:16:55.006Z,11.40
2018-12-03T16:19:25.147Z,14.47
2018-12-03T16:21:54.805Z,13.57
2018-12-03T16:24:24.383Z,12.77
2018-12-03T16:26:54.087Z,13.57
2018-12-03T16:29:23.623Z,13.20
2018-12-03T16:31:53.211Z,13.10
2018-12-03T16:34:22.759Z,15.30
2018-12-03T16:36:52.323Z,14.60
2018-12-03T16:39:21.871Z,15.10
2018-12-03T16:41:51.042Z,16.80
2018-12-03T16:44:20.485Z,15.27
2018-12-03T16:46:50.039Z,15.13
2018-12-03T16:49:19.567Z,13.73
2018-12-03T16:51:49.091Z,14.20
2018-12-03T16:54:18.705Z,19.77
2018-12-03T16:56:48.207Z,17.33
2018-12-03T16:59:17.735Z,19.37
2018-12-03T17:01:47.267Z,30.80
2018-12-03T17:04:16.834Z,20.10
2018-12-03T17:06:46.607Z,18.43
2018-12-03T17:09:15.763Z,19.27
2018-12-03T17:11:45.931Z,18.63
2018-12-03T17:14:15.497Z,18.77
2018-12-03T17:16:45.064Z,19.87
2018-12-03T17:19:16.375Z,17.33
2018-12-03T17:22:00.868Z,18.10
2018-12-03T17:24:33.375Z,15.47
2018-12-03T17:27:02.927Z,16.70
2018-12-03T17:29:32.451Z,14.97
2018-12-03T17:32:02.056Z,14.13
2018-12-03T17:34:31.567Z,14.37
2018-12-03T17:37:01.104Z,15.27
2018-12-03T17:39:30.731Z,16.53
2018-12-03T17:42:02.057Z,19.60
2018-12-03T17:44:31.672Z,20.80
2018-12-03T17:47:01.219Z,20.43
2018-12-03T17:49:30.750Z,22.97
2018-12-03T17:52:00.287Z,27.83
2018-12-03T17:54:29.811Z,29.97
2018-12-03T17:56:59.339Z,26.93
2018-12-03T17:59:28.859Z,28.67
2018-12-03T18:01:58.401Z,24.73
2018-12-03T18:04:27.958Z,23.63
2018-12-03T18:06:57.502Z,23.10
2018-12-03T18:09:27.031Z,22.70
2018-12-03T18:11:57.483Z,20.13
2018-12-03T18:14:27.165Z,20.47
2018-12-03T18:16:56.716Z,19.97
2018-12-03T18:19:26.271Z,18.33
2018-12-03T18:21:55.847Z,18.90
2018-12-03T18:24:25.585Z,18.73
2018-12-03T18:26:55.135Z,18.43
2018-12-03T18:29:24.659Z,17.47
2018-12-03T18:31:54.395Z,18.57
2018-12-03T18:34:23.931Z,18.47
2018-12-03T18:36:53.727Z,20.13
2018-12-03T18:39:23.273Z,22.10
2018-12-03T18:41:52.797Z,26.30
2018-12-03T18:44:22.336Z,31.07
2018-12-03T18:46:51.859Z,30.07
2018-12-03T18:49:32.831Z,29.60
2018-12-03T18:52:02.392Z,26.47
2018-12-03T18:54:31.918Z,25.00
2018-12-03T18:57:01.098Z,22.20
2018-12-03T18:59:30.731Z,36.03
2018-12-03T19:02:00.371Z,29.77
2018-12-03T19:04:29.867Z,40.80
2018-12-03T19:06:59.067Z,44.27
2018-12-03T19:09:28.498Z,60.70
2018-12-03T19:11:58.008Z,65.50
2018-12-03T19:14:27.560Z,56.83
2018-12-03T19:16:57.392Z,47.90
2018-12-03T19:19:26.983Z,35.27
2018-12-03T19:21:56.571Z,37.53
2018-12-03T19:24:26.147Z,29.80
2018-12-03T19:26:55.707Z,34.70
2018-12-03T19:29:25.215Z,31.53
2018-12-03T19:31:56.551Z,32.43
2018-12-03T19:34:27.956Z,28.80
2018-12-03T19:37:16.361Z,23.80
2018-12-03T19:39:45.919Z,21.83
2018-12-03T19:42:16.557Z,20.53
2018-12-03T19:44:46.343Z,21.07
2018-12-03T19:47:15.847Z,20.07
2018-12-03T19:49:46.527Z,24.73
2018-12-03T19:52:16.054Z,30.53
2018-12-03T19:54:46.648Z,26.07
2018-12-03T19:57:18.479Z,23.10
2018-12-03T19:59:50.424Z,21.40
2018-12-03T20:02:19.997Z,20.80
2018-12-03T20:04:52.116Z,25.17
2018-12-03T20:07:21.771Z,26.20
2018-12-03T20:09:52.979Z,24.73
2018-12-03T20:12:22.756Z,23.37
2018-12-03T20:14:52.338Z,26.17
2018-12-03T20:17:32.539Z,28.03
2018-12-03T20:20:02.136Z,30.53
2018-12-03T20:22:40.976Z,30.87
2018-12-03T20:25:12.855Z,31.57
2018-12-03T20:27:53.092Z,33.43
2018-12-03T20:31:26.593Z,26.17
2018-12-03T20:34:32.460Z,25.47
2018-12-03T20:43:12.410Z,27.07
2018-12-03T20:45:51.155Z,24.80
2018-12-03T20:48:26.155Z,33.40
2018-12-03T20:51:04.540Z,26.67
2018-12-03T20:53:36.607Z,25.47
2018-12-03T20:56:05.966Z,21.40
2018-12-03T20:58:35.419Z,20.53
2018-12-03T21:01:05.089Z,23.53
2018-12-03T21:03:34.625Z,28.43
2018-12-03T21:06:04.697Z,36.17
2018-12-03T21:08:34.219Z,34.90
2018-12-03T21:11:03.758Z,30.53
2018-12-03T21:13:33.391Z,38.33
2018-12-03T21:16:03.614Z,32.27
2018-12-03T21:18:33.163Z,30.33
2018-12-03T21:21:05.015Z,29.50
2018-12-03T21:23:34.162Z,28.07
2018-12-03T21:26:04.083Z,27.27
2018-12-03T21:28:33.979Z,30.80
2018-12-03T21:31:03.511Z,25.00
2018-12-03T21:33:33.059Z,27.27
2018-12-03T21:36:02.579Z,38.37
2018-12-03T21:38:31.781Z,32.97
2018-12-03T21:41:01.240Z,32.87
2018-12-03T21:43:31.038Z,30.87
2018-12-03T21:46:00.566Z,25.70
2018-12-03T21:48:30.099Z,26.20
2018-12-03T21:50:59.706Z,26.63
2018-12-03T21:53:29.251Z,25.77
2018-12-03T21:55:59.527Z,24.37
2018-12-03T21:58:29.155Z,21.87
2018-12-03T22:00:58.727Z,21.57
2018-12-03T22:03:29.882Z,20.73
2018-12-03T22:05:59.391Z,20.77
2018-12-03T22:08:28.939Z,20.27
2018-12-03T22:10:58.503Z,24.00
2018-12-03T22:13:28.062Z,30.60
2018-12-03T22:16:02.902Z,29.83
2018-12-03T22:18:33.910Z,54.47
2018-12-03T22:21:03.412Z,59.90
2018-12-03T22:23:32.627Z,32.70
2018-12-03T22:26:02.042Z,35.53
2018-12-03T22:28:31.583Z,28.53
2018-12-03T22:31:01.126Z,26.20
2018-12-03T22:33:30.639Z,31.10
2018-12-03T22:36:00.198Z,25.93
2018-12-03T22:38:29.356Z,27.23
2018-12-03T22:40:58.791Z,35.80
2018-12-03T22:43:28.331Z,27.37
2018-12-03T22:45:58.310Z,22.57
2018-12-03T22:48:27.890Z,23.33
2018-12-03T22:50:57.407Z,20.37
2018-12-03T22:53:26.918Z,20.40
2018-12-03T22:55:56.444Z,19.70
2018-12-03T22:58:25.956Z,20.47
2018-12-03T23:01:01.442Z,21.17
2018-12-03T23:03:30.971Z,20.47
2018-12-03T23:06:00.531Z,22.07
2018-12-03T23:08:30.051Z,23.97
2018-12-03T23:11:00.035Z,24.23
2018-12-03T23:13:29.599Z,22.77
2018-12-03T23:15:59.122Z,24.50
2018-12-03T23:18:28.651Z,27.30
2018-12-03T23:20:58.172Z,24.30
2018-12-03T23:23:27.691Z,25.17
2018-12-03T23:25:57.243Z,23.77
2018-12-03T23:28:26.763Z,24.00
2018-12-03T23:30:56.303Z,24.23
2018-12-03T23:33:25.840Z,25.43
2018-12-03T23:35:55.354Z,28.97
2018-12-03T23:38:24.859Z,30.17
2018-12-03T23:40:54.370Z,30.47
2018-12-03T23:43:23.908Z,31.93
2018-12-03T23:45:53.765Z,32.10
2018-12-03T23:48:23.295Z,31.63
2018-12-03T23:50:52.807Z,30.43
2018-12-03T23:53:22.354Z,31.17
2018-12-03T23:55:51.886Z,30.83
2018-12-03T23:58:21.390Z,30.67
